createdAt,value
2016-07-14T00:00:07.492Z,0
2016-07-14T00:01:07.499Z,0
2016-07-14T00:02:08.436Z,0
2016-07-14T00:03:07.517Z,0
2016-07-14T00:04:22.587Z,0
2016-07-14T00:05:07.526Z,0
2016-07-14T00:06:06.809Z,0
2016-07-14T00:07:08.251Z,0
2016-07-14T00:08:07.526Z,0
2016-07-14T00:09:08.274Z,0
2016-07-14T00:10:08.495Z,0
2016-07-14T00:11:08.556Z,0
2016-07-14T00:12:23.384Z,0
2016-07-14T00:13:08.397Z,0
2016-07-14T00:14:07.586Z,0
2016-07-14T00:15:07.593Z,0
2016-07-14T00:16:08.319Z,0
2016-07-14T00:17:07.591Z,0
2016-07-14T00:18:06.901Z,0
2016-07-14T00:19:09.268Z,0
2016-07-14T00:20:07.632Z,0
2016-07-14T00:21:08.047Z,0
2016-07-14T00:22:08.345Z,0
2016-07-14T00:23:07.650Z,0
2016-07-14T00:24:07.863Z,0
2016-07-14T00:25:06.948Z,0
2016-07-14T00:26:07.196Z,0
2016-07-14T00:27:07.667Z,0
2016-07-14T00:28:06.959Z,0
2016-07-14T00:29:07.880Z,0
2016-07-14T00:30:07.707Z,0
2016-07-14T00:31:07.688Z,0
2016-07-14T00:32:07.734Z,0
2016-07-14T00:33:07.908Z,0
2016-07-14T00:34:08.440Z,0
2016-07-14T00:36:08.461Z,0
2016-07-14T00:37:08.465Z,0
2016-07-14T00:38:22.614Z,0
2016-07-14T00:39:08.486Z,0
2016-07-14T00:40:07.979Z,0
2016-07-14T00:41:07.557Z,0
2016-07-14T00:42:07.068Z,0
2016-07-14T00:43:08.508Z,0
2016-07-14T00:44:07.787Z,0
2016-07-14T00:45:22.658Z,0
2016-07-14T00:46:08.530Z,0
2016-07-14T00:47:08.535Z,0
2016-07-14T00:48:08.036Z,0
2016-07-14T00:49:07.817Z,0
2016-07-14T00:50:07.825Z,0
2016-07-14T00:51:07.097Z,0
2016-07-14T00:52:07.852Z,0
2016-07-14T00:53:08.782Z,0
2016-07-14T00:54:07.857Z,0
2016-07-14T00:55:22.209Z,0
2016-07-14T00:56:08.271Z,0
2016-07-14T00:57:07.359Z,0
2016-07-14T00:58:07.432Z,0
2016-07-14T00:59:07.175Z,0
2016-07-14T01:00:07.173Z,0
2016-07-14T01:01:07.182Z,0
2016-07-14T01:02:07.180Z,0
2016-07-14T01:03:07.181Z,0
2016-07-14T01:04:07.201Z,0
2016-07-14T01:05:22.478Z,0
2016-07-14T01:06:07.399Z,0
2016-07-14T01:07:07.221Z,0
2016-07-14T01:08:08.157Z,0
2016-07-14T01:09:07.217Z,0
2016-07-14T01:10:07.223Z,0
2016-07-14T01:11:07.229Z,0
2016-07-14T01:12:07.246Z,0
2016-07-14T01:13:07.468Z,0
2016-07-14T01:14:08.168Z,0
2016-07-14T01:15:08.195Z,0
2016-07-14T01:16:08.714Z,0
2016-07-14T01:17:07.291Z,0
2016-07-14T01:18:08.184Z,0
2016-07-14T01:19:08.736Z,0
2016-07-14T01:20:08.204Z,0
2016-07-14T01:21:08.750Z,0
2016-07-14T01:22:08.419Z,0
2016-07-14T01:23:08.043Z,0
2016-07-14T01:24:07.311Z,0
2016-07-14T01:25:08.031Z,0
2016-07-14T01:26:08.037Z,0
2016-07-14T01:27:08.787Z,0
2016-07-14T01:28:08.074Z,0
2016-07-14T01:29:08.083Z,0
2016-07-14T01:30:08.051Z,0
2016-07-14T01:31:08.267Z,0
2016-07-14T01:32:07.356Z,0
2016-07-14T01:33:07.768Z,0
2016-07-14T01:34:08.088Z,0
2016-07-14T01:35:22.446Z,0
2016-07-14T01:36:08.091Z,0
2016-07-14T01:37:07.382Z,0
2016-07-14T01:38:08.818Z,0
2016-07-14T01:39:08.118Z,0
2016-07-14T01:40:08.313Z,0
2016-07-14T01:41:08.176Z,0
2016-07-14T01:42:09.036Z,0
2016-07-14T01:43:09.064Z,0
2016-07-14T01:44:07.429Z,0
2016-07-14T01:45:08.872Z,0
2016-07-14T01:46:09.100Z,0
2016-07-14T01:47:08.148Z,0
2016-07-14T01:48:07.450Z,0
2016-07-14T01:49:09.105Z,0
2016-07-14T01:50:08.197Z,0
2016-07-14T01:51:08.904Z,0
2016-07-14T01:52:23.246Z,0
2016-07-14T01:53:08.423Z,0
2016-07-14T01:54:08.923Z,0
2016-07-14T01:55:08.260Z,0
2016-07-14T01:56:07.499Z,0
2016-07-14T01:57:07.531Z,0
2016-07-14T01:58:08.667Z,0
2016-07-14T01:59:23.117Z,0
2016-07-14T02:00:09.197Z,0
2016-07-14T02:01:08.456Z,0
2016-07-14T02:02:22.608Z,0
2016-07-14T02:03:07.549Z,0
2016-07-14T02:04:08.478Z,0
2016-07-14T02:05:07.547Z,0
2016-07-14T02:06:08.497Z,0
2016-07-14T02:07:22.428Z,0
2016-07-14T02:08:07.596Z,0
2016-07-14T02:09:07.581Z,0
2016-07-14T02:10:08.010Z,0
2016-07-14T02:11:07.615Z,0
2016-07-14T02:12:09.049Z,0
2016-07-14T02:13:08.298Z,0
2016-07-14T02:14:07.601Z,0
2016-07-14T02:15:08.322Z,0
2016-07-14T02:16:07.637Z,0
2016-07-14T02:17:07.851Z,0
2016-07-14T02:18:08.372Z,0
2016-07-14T02:19:09.289Z,0
2016-07-14T02:20:07.640Z,0
2016-07-14T02:21:07.642Z,0
2016-07-14T02:22:08.380Z,0
2016-07-14T02:23:08.398Z,0
2016-07-14T02:24:07.666Z,0
2016-07-14T02:25:08.391Z,0
2016-07-14T02:27:07.884Z,0
2016-07-14T02:28:07.936Z,0
2016-07-14T02:29:08.406Z,0
2016-07-14T02:30:08.432Z,0
2016-07-14T02:31:08.422Z,0
2016-07-14T02:33:22.578Z,0
2016-07-14T02:34:22.620Z,0
2016-07-14T02:35:08.480Z,0
2016-07-14T02:36:08.462Z,0
2016-07-14T02:37:07.739Z,0
2016-07-14T02:38:08.473Z,0
2016-07-14T02:39:08.687Z,0
2016-07-14T02:40:07.768Z,0
2016-07-14T02:41:07.771Z,0
2016-07-14T02:42:07.782Z,4
2016-07-14T02:43:08.540Z,0
2016-07-14T02:44:08.515Z,4
2016-07-14T02:45:07.801Z,4
2016-07-14T02:46:07.799Z,4
2016-07-14T02:47:07.819Z,4
2016-07-14T02:48:08.745Z,4
2016-07-14T02:49:24.520Z,0
2016-07-14T02:50:08.558Z,4
2016-07-14T02:51:08.034Z,4
2016-07-14T02:52:09.273Z,4
2016-07-14T02:53:09.474Z,4
2016-07-14T02:54:08.573Z,8
2016-07-14T02:55:08.057Z,8
2016-07-14T02:56:09.316Z,12
2016-07-14T02:57:09.326Z,16
2016-07-14T02:58:08.611Z,16
2016-07-14T02:59:08.614Z,16
2016-07-14T03:00:08.613Z,16
2016-07-14T03:01:08.615Z,16
2016-07-14T03:02:09.353Z,16
2016-07-14T03:03:08.652Z,16
2016-07-14T03:04:09.061Z,16
2016-07-14T03:05:10.095Z,20
2016-07-14T03:06:09.375Z,20
2016-07-14T03:07:07.940Z,24
2016-07-14T03:08:09.055Z,28
2016-07-14T03:09:08.160Z,32
2016-07-14T03:11:08.934Z,52
2016-07-14T03:12:07.959Z,56
2016-07-14T03:13:07.965Z,60
2016-07-14T03:14:08.696Z,72
2016-07-14T03:15:08.177Z,72
2016-07-14T03:16:07.999Z,72
2016-07-14T03:17:07.994Z,68
2016-07-14T03:18:07.996Z,76
2016-07-14T03:19:08.298Z,76
2016-07-14T03:20:08.020Z,96
2016-07-14T03:21:08.014Z,108
2016-07-14T03:22:08.047Z,120
2016-07-14T03:23:08.052Z,96
2016-07-14T03:24:09.514Z,96
2016-07-14T03:25:08.040Z,112
2016-07-14T03:26:08.970Z,92
2016-07-14T03:27:08.787Z,116
2016-07-14T03:28:08.794Z,124
2016-07-14T03:29:08.775Z,124
2016-07-14T03:30:09.180Z,108
2016-07-14T03:31:09.740Z,92
2016-07-14T03:32:09.237Z,84
2016-07-14T03:33:09.040Z,96
2016-07-14T03:34:08.561Z,96
2016-07-14T03:35:08.846Z,104
2016-07-14T03:36:09.587Z,112
2016-07-14T03:37:08.857Z,104
2016-07-14T03:38:09.814Z,100
2016-07-14T03:39:08.846Z,100
2016-07-14T03:40:08.121Z,92
2016-07-14T03:41:09.258Z,108
2016-07-14T03:42:23.020Z,128
2016-07-14T03:43:23.003Z,120
2016-07-14T03:44:08.875Z,124
2016-07-14T03:45:09.092Z,164
2016-07-14T03:46:08.370Z,216
2016-07-14T03:47:08.175Z,272
2016-07-14T03:48:08.893Z,276
2016-07-14T03:49:08.794Z,332
2016-07-14T03:50:08.925Z,452
2016-07-14T03:51:09.107Z,468
2016-07-14T03:52:08.910Z,424
2016-07-14T03:53:08.944Z,376
2016-07-14T03:54:08.922Z,368
2016-07-14T03:55:09.649Z,368
2016-07-14T03:56:23.093Z,400
2016-07-14T03:57:08.966Z,416
2016-07-14T03:58:10.394Z,576
2016-07-14T03:59:10.389Z,584
2016-07-14T04:00:08.243Z,656
2016-07-14T04:01:09.193Z,908
2016-07-14T04:02:08.988Z,980
2016-07-14T04:03:08.272Z,1092
2016-07-14T04:04:09.001Z,1080
2016-07-14T04:05:08.278Z,1168
2016-07-14T04:06:09.735Z,980
2016-07-14T04:07:08.302Z,1016
2016-07-14T04:08:08.539Z,972
2016-07-14T04:09:24.807Z,720
2016-07-14T04:10:23.368Z,636
2016-07-14T04:11:09.036Z,728
2016-07-14T04:12:09.051Z,728
2016-07-14T04:13:08.349Z,752
2016-07-14T04:14:09.081Z,528
2016-07-14T04:15:23.213Z,536
2016-07-14T04:16:09.053Z,568
2016-07-14T04:17:08.351Z,640
2016-07-14T04:18:08.351Z,620
2016-07-14T04:19:08.359Z,596
2016-07-14T04:20:08.384Z,692
2016-07-14T04:21:09.091Z,600
2016-07-14T04:22:08.395Z,672
2016-07-14T04:23:09.120Z,644
2016-07-14T04:24:08.797Z,628
2016-07-14T04:25:08.806Z,972
2016-07-14T04:26:09.327Z,688
2016-07-14T04:27:09.159Z,616
2016-07-14T04:28:09.148Z,816
2016-07-14T04:29:09.131Z,812
2016-07-14T04:30:09.882Z,680
2016-07-14T04:31:09.188Z,748
2016-07-14T04:32:09.180Z,620
2016-07-14T04:33:08.450Z,664
2016-07-14T04:34:08.450Z,612
2016-07-14T04:35:08.474Z,500
2016-07-14T04:36:08.459Z,540
2016-07-14T04:37:09.174Z,584
2016-07-14T04:38:09.220Z,680
2016-07-14T04:39:09.219Z,640
2016-07-14T04:40:09.903Z,664
2016-07-14T04:41:08.490Z,584
2016-07-14T04:42:09.211Z,536
2016-07-14T04:43:23.564Z,504
2016-07-14T04:44:09.465Z,388
2016-07-14T04:45:08.508Z,340
2016-07-14T04:46:08.512Z,300
2016-07-14T04:47:09.234Z,436
2016-07-14T04:48:09.979Z,508
2016-07-14T04:49:09.246Z,680
2016-07-14T04:50:09.265Z,712
2016-07-14T04:51:09.272Z,744
2016-07-14T04:52:09.262Z,652
2016-07-14T04:53:08.755Z,452
2016-07-14T04:54:09.292Z,468
2016-07-14T04:55:08.568Z,920
2016-07-14T04:56:09.298Z,956
2016-07-14T04:57:09.578Z,948
2016-07-14T04:58:10.430Z,752
2016-07-14T04:59:08.611Z,600
2016-07-14T05:00:08.590Z,448
2016-07-14T05:01:24.181Z,560
2016-07-14T05:02:09.821Z,496
2016-07-14T05:03:08.621Z,532
2016-07-14T05:04:08.836Z,480
2016-07-14T05:05:08.647Z,428
2016-07-14T05:06:08.833Z,416
2016-07-14T05:07:09.031Z,480
2016-07-14T05:08:08.668Z,524
2016-07-14T05:09:09.758Z,440
2016-07-14T05:10:09.567Z,452
2016-07-14T05:11:09.209Z,492
2016-07-14T05:12:09.569Z,472
2016-07-14T05:13:08.684Z,492
2016-07-14T05:14:09.397Z,704
2016-07-14T05:15:09.394Z,556
2016-07-14T05:16:08.675Z,724
2016-07-14T05:17:09.447Z,524
2016-07-14T05:18:09.628Z,764
2016-07-14T05:19:09.655Z,956
2016-07-14T05:20:09.624Z,1028
2016-07-14T05:21:10.161Z,1236
2016-07-14T05:22:10.150Z,1208
2016-07-14T05:23:09.443Z,1104
2016-07-14T05:24:09.636Z,1400
2016-07-14T05:25:09.842Z,1288
2016-07-14T05:26:10.598Z,1292
2016-07-14T05:27:10.190Z,1508
2016-07-14T05:28:10.175Z,1016
2016-07-14T05:29:09.472Z,1140
2016-07-14T05:30:09.501Z,896
2016-07-14T05:31:09.487Z,960
2016-07-14T05:32:08.856Z,1080
2016-07-14T05:33:10.264Z,964
2016-07-14T05:34:10.246Z,944
2016-07-14T05:35:09.724Z,1284
2016-07-14T05:36:08.798Z,1100
2016-07-14T05:37:08.787Z,1460
2016-07-14T05:38:09.754Z,1348
2016-07-14T05:39:09.229Z,1528
2016-07-14T05:40:23.871Z,1364
2016-07-14T05:41:09.876Z,1436
2016-07-14T05:42:09.024Z,1364
2016-07-14T05:43:09.729Z,1120
2016-07-14T05:44:09.746Z,1172
2016-07-14T05:45:09.030Z,1056
2016-07-14T05:46:09.549Z,1248
2016-07-14T05:47:09.792Z,1144
2016-07-14T05:48:08.846Z,1184
2016-07-14T05:49:09.841Z,1400
2016-07-14T05:50:08.859Z,1244
2016-07-14T05:51:08.868Z,1100
2016-07-14T05:52:08.872Z,952
2016-07-14T05:53:08.873Z,748
2016-07-14T05:54:08.880Z,704
2016-07-14T05:55:09.595Z,1036
2016-07-14T05:56:08.906Z,1376
2016-07-14T05:57:08.903Z,1064
2016-07-14T05:58:09.103Z,1000
2016-07-14T05:59:08.919Z,1332
2016-07-14T06:00:10.038Z,1460
2016-07-14T06:01:09.879Z,1680
2016-07-14T06:02:09.644Z,1712
2016-07-14T06:03:09.662Z,1256
2016-07-14T06:04:10.426Z,1000
2016-07-14T06:05:08.946Z,760
2016-07-14T06:06:09.675Z,660
2016-07-14T06:07:09.698Z,640
2016-07-14T06:08:09.161Z,724
2016-07-14T06:09:08.968Z,1004
2016-07-14T06:10:11.040Z,1004
2016-07-14T06:11:10.191Z,1104
2016-07-14T06:12:24.783Z,1168
2016-07-14T06:13:09.182Z,1032
2016-07-14T06:14:09.190Z,1200
2016-07-14T06:15:09.005Z,1784
2016-07-14T06:16:09.938Z,1496
2016-07-14T06:17:09.971Z,1500
2016-07-14T06:18:09.034Z,1124
2016-07-14T06:19:10.673Z,796
2016-07-14T06:20:09.740Z,596
2016-07-14T06:21:09.992Z,772
2016-07-14T06:22:09.957Z,1364
2016-07-14T06:23:09.242Z,1424
2016-07-14T06:24:09.278Z,1628
2016-07-14T06:25:09.259Z,2056
2016-07-14T06:26:09.788Z,1736
2016-07-14T06:27:09.055Z,3120
2016-07-14T06:28:10.702Z,3476
2016-07-14T06:29:09.291Z,2580
2016-07-14T06:30:09.082Z,2132
2016-07-14T06:31:09.077Z,1252
2016-07-14T06:32:09.087Z,828
2016-07-14T06:33:09.799Z,1028
2016-07-14T06:34:09.819Z,1180
2016-07-14T06:35:10.794Z,2228
2016-07-14T06:36:10.535Z,3192
2016-07-14T06:37:10.028Z,2744
2016-07-14T06:38:11.262Z,4364
2016-07-14T06:39:10.067Z,3328
2016-07-14T06:40:09.130Z,3152
2016-07-14T06:41:10.874Z,3532
2016-07-14T06:42:10.267Z,3040
2016-07-14T06:43:09.337Z,2948
2016-07-14T06:44:09.363Z,2416
2016-07-14T06:45:24.020Z,3136
2016-07-14T06:46:09.159Z,2628
2016-07-14T06:47:09.163Z,2024
2016-07-14T06:48:25.400Z,1564
2016-07-14T06:49:10.110Z,1516
2016-07-14T06:50:09.880Z,2828
2016-07-14T06:51:09.893Z,3268
2016-07-14T06:52:09.190Z,3664
2016-07-14T06:53:09.919Z,3308
2016-07-14T06:54:09.208Z,3368
2016-07-14T06:55:09.932Z,3264
2016-07-14T06:56:10.158Z,3292
2016-07-14T06:57:09.938Z,3672
2016-07-14T06:58:09.969Z,2208
2016-07-14T06:59:09.218Z,2464
2016-07-14T07:00:09.970Z,1768
2016-07-14T07:01:25.548Z,1748
2016-07-14T07:02:09.239Z,1820
2016-07-14T07:03:09.959Z,1872
2016-07-14T07:04:09.977Z,2060
2016-07-14T07:05:10.690Z,2616
2016-07-14T07:06:10.035Z,2468
2016-07-14T07:07:09.988Z,3352
2016-07-14T07:08:10.008Z,2604
2016-07-14T07:09:10.757Z,1380
2016-07-14T07:10:10.765Z,1388
2016-07-14T07:11:10.215Z,1788
2016-07-14T07:12:10.740Z,1872
2016-07-14T07:13:10.035Z,1416
2016-07-14T07:14:09.539Z,1492
2016-07-14T07:15:09.312Z,1628
2016-07-14T07:16:24.173Z,1472
2016-07-14T07:17:09.536Z,1640
2016-07-14T07:18:09.521Z,2044
2016-07-14T07:19:10.032Z,2216
2016-07-14T07:20:10.032Z,2400
2016-07-14T07:21:10.075Z,2580
2016-07-14T07:22:10.065Z,2180
2016-07-14T07:23:10.275Z,1940
2016-07-14T07:24:09.558Z,1996
2016-07-14T07:25:10.096Z,2016
2016-07-14T07:26:10.283Z,2212
2016-07-14T07:27:25.318Z,2256
2016-07-14T07:28:09.362Z,2152
2016-07-14T07:29:10.797Z,3628
2016-07-14T07:30:10.826Z,5124
2016-07-14T07:31:10.091Z,5508
2016-07-14T07:32:11.027Z,6268
2016-07-14T07:33:10.100Z,4508
2016-07-14T07:34:10.334Z,4448
2016-07-14T07:35:10.127Z,3548
2016-07-14T07:36:09.818Z,3808
2016-07-14T07:37:25.216Z,3560
2016-07-14T07:38:09.420Z,2980
2016-07-14T07:39:10.149Z,3124
2016-07-14T07:40:09.432Z,2716
2016-07-14T07:41:11.363Z,2608
2016-07-14T07:42:09.499Z,1504
2016-07-14T07:43:09.440Z,1204
2016-07-14T07:44:09.459Z,1780
2016-07-14T07:45:11.232Z,2064
2016-07-14T07:46:10.921Z,1932
2016-07-14T07:47:09.614Z,2132
2016-07-14T07:48:09.488Z,1360
2016-07-14T07:49:09.514Z,1436
2016-07-14T07:50:10.432Z,2068
2016-07-14T07:52:10.948Z,2648
2016-07-14T07:53:10.957Z,2360
2016-07-14T07:54:09.700Z,2304
2016-07-14T07:55:09.924Z,2040
2016-07-14T07:56:24.367Z,2300
2016-07-14T07:57:10.454Z,2964
2016-07-14T07:58:09.731Z,4100
2016-07-14T07:59:09.541Z,3412
2016-07-14T08:00:09.566Z,3540
2016-07-14T08:01:11.164Z,2508
2016-07-14T08:02:10.265Z,2136
2016-07-14T08:03:09.552Z,1556
2016-07-14T08:04:10.289Z,1812
2016-07-14T08:05:10.278Z,2080
2016-07-14T08:06:11.300Z,2140
2016-07-14T08:07:10.496Z,2724
2016-07-14T08:08:10.292Z,3004
2016-07-14T08:09:10.474Z,2876
2016-07-14T08:10:09.818Z,2088
2016-07-14T08:11:11.183Z,1612
2016-07-14T08:12:10.398Z,1000
2016-07-14T08:13:10.319Z,904
2016-07-14T08:14:11.062Z,1452
2016-07-14T08:15:09.806Z,1368
2016-07-14T08:16:09.821Z,1804
2016-07-14T08:17:24.477Z,3348
2016-07-14T08:18:11.482Z,3368
2016-07-14T08:19:09.624Z,5396
2016-07-14T08:20:09.635Z,5556
2016-07-14T08:21:10.357Z,7144
2016-07-14T08:22:10.348Z,7056
2016-07-14T08:23:09.686Z,5872
2016-07-14T08:24:09.845Z,7048
2016-07-14T08:26:24.522Z,7156
2016-07-14T08:27:09.878Z,7172
2016-07-14T08:28:09.675Z,6576
2016-07-14T08:29:09.692Z,4832
2016-07-14T08:30:10.443Z,2672
2016-07-14T08:31:10.396Z,2724
2016-07-14T08:32:10.645Z,1896
2016-07-14T08:33:10.420Z,1968
2016-07-14T08:34:09.700Z,2064
2016-07-14T08:35:10.421Z,2012
2016-07-14T08:36:10.429Z,1552
2016-07-14T08:37:10.448Z,1780
2016-07-14T08:38:10.855Z,1820
2016-07-14T08:39:09.734Z,1368
2016-07-14T08:40:10.447Z,1312
2016-07-14T08:41:10.512Z,1884
2016-07-14T08:42:25.322Z,3492
2016-07-14T08:43:10.508Z,4004
2016-07-14T08:44:09.818Z,4740
2016-07-14T08:45:11.212Z,4536
2016-07-14T08:46:09.786Z,4528
2016-07-14T08:47:09.784Z,4776
2016-07-14T08:48:09.774Z,4600
2016-07-14T08:49:10.499Z,4236
2016-07-14T08:50:09.790Z,3116
2016-07-14T08:51:10.515Z,2356
2016-07-14T08:52:09.813Z,1564
2016-07-14T08:53:11.253Z,1588
2016-07-14T08:54:25.063Z,1544
2016-07-14T08:55:24.913Z,3512
2016-07-14T08:56:09.819Z,2768
2016-07-14T08:57:09.830Z,3280
2016-07-14T08:58:25.426Z,4036
2016-07-14T08:59:10.039Z,3612
2016-07-14T09:00:24.695Z,5540
2016-07-14T09:01:10.552Z,3864
2016-07-14T09:02:11.301Z,3352
2016-07-14T09:03:24.720Z,5712
2016-07-14T09:04:10.588Z,3156
2016-07-14T09:05:10.586Z,3696
2016-07-14T09:06:11.527Z,2424
2016-07-14T09:07:10.587Z,2868
2016-07-14T09:08:10.653Z,3092
2016-07-14T09:09:09.873Z,2240
2016-07-14T09:10:10.097Z,2560
2016-07-14T09:11:09.919Z,1852
2016-07-14T09:12:10.647Z,1652
2016-07-14T09:13:10.618Z,1868
2016-07-14T09:14:10.843Z,1952
2016-07-14T09:15:09.920Z,3020
2016-07-14T09:16:09.932Z,2816
2016-07-14T09:17:09.928Z,3572
2016-07-14T09:18:09.948Z,3640
2016-07-14T09:19:10.643Z,3004
2016-07-14T09:20:09.943Z,2008
2016-07-14T09:21:10.877Z,2544
2016-07-14T09:22:09.972Z,2488
2016-07-14T09:23:10.161Z,3560
2016-07-14T09:24:25.550Z,3596
2016-07-14T09:25:09.965Z,3404
2016-07-14T09:26:09.992Z,3416
2016-07-14T09:27:10.727Z,2756
2016-07-14T09:28:11.449Z,2624
2016-07-14T09:29:24.853Z,2304
2016-07-14T09:30:10.774Z,2852
2016-07-14T09:31:09.996Z,2964
2016-07-14T09:32:10.721Z,4524
2016-07-14T09:33:10.967Z,6276
2016-07-14T09:34:10.212Z,5736
2016-07-14T09:35:11.444Z,5468
2016-07-14T09:36:11.861Z,4116
2016-07-14T09:37:10.753Z,3464
2016-07-14T09:38:10.761Z,3712
2016-07-14T09:39:11.895Z,4204
2016-07-14T09:40:11.490Z,4676
2016-07-14T09:41:10.815Z,5592
2016-07-14T09:42:10.074Z,7528
2016-07-14T09:43:10.838Z,7796
2016-07-14T09:44:10.278Z,8488
2016-07-14T09:45:11.016Z,6672
2016-07-14T09:46:10.089Z,9712
2016-07-14T09:47:10.090Z,5864
2016-07-14T09:48:10.099Z,5836
2016-07-14T09:49:10.104Z,9932
2016-07-14T09:50:10.096Z,7964
2016-07-14T09:51:10.125Z,8696
2016-07-14T09:52:12.150Z,7332
2016-07-14T09:53:10.436Z,9740
2016-07-14T09:54:10.653Z,6436
2016-07-14T09:55:11.250Z,6428
2016-07-14T09:56:25.890Z,9224
2016-07-14T09:57:10.690Z,6028
2016-07-14T09:58:10.845Z,8816
2016-07-14T09:59:10.413Z,6992
2016-07-14T10:00:11.185Z,8120
2016-07-14T10:01:10.676Z,9728
2016-07-14T10:02:25.190Z,9360
2016-07-14T10:03:10.402Z,9008
2016-07-14T10:04:11.480Z,8228
2016-07-14T10:05:10.428Z,7292
2016-07-14T10:06:12.407Z,8044
2016-07-14T10:07:10.396Z,9608
2016-07-14T10:08:10.546Z,9712
2016-07-14T10:09:11.594Z,8948
2016-07-14T10:10:11.322Z,6280
2016-07-14T10:11:12.146Z,8744
2016-07-14T10:12:25.449Z,6804
2016-07-14T10:13:10.430Z,6704
2016-07-14T10:14:11.590Z,10768
2016-07-14T10:15:12.774Z,9452
2016-07-14T10:16:10.519Z,10932
2016-07-14T10:17:12.387Z,10360
2016-07-14T10:18:11.425Z,10640
2016-07-14T10:19:25.704Z,11568
2016-07-14T10:20:10.636Z,10108
2016-07-14T10:21:11.589Z,9076
2016-07-14T10:22:11.358Z,7176
2016-07-14T10:23:11.613Z,7048
2016-07-14T10:24:12.053Z,6520
2016-07-14T10:25:10.493Z,8012
2016-07-14T10:26:11.999Z,7496
2016-07-14T10:27:26.111Z,7488
2016-07-14T10:28:12.273Z,7284
2016-07-14T10:29:12.111Z,6892
2016-07-14T10:30:12.383Z,5192
2016-07-14T10:31:10.512Z,4720
2016-07-14T10:32:11.762Z,6840
2016-07-14T10:33:10.504Z,7756
2016-07-14T10:34:11.080Z,8548
2016-07-14T10:35:10.512Z,8940
2016-07-14T10:36:11.512Z,9756
2016-07-14T10:37:10.540Z,8444
2016-07-14T10:38:10.570Z,9360
2016-07-14T10:39:11.762Z,8580
2016-07-14T10:40:10.661Z,6924
2016-07-14T10:41:10.598Z,6332
2016-07-14T10:42:11.344Z,8428
2016-07-14T10:43:10.893Z,9144
2016-07-14T10:44:10.900Z,9104
2016-07-14T10:45:10.658Z,9128
2016-07-14T10:46:10.743Z,8936
2016-07-14T10:47:11.195Z,9628
2016-07-14T10:48:11.589Z,8592
2016-07-14T10:49:11.124Z,8208
2016-07-14T10:50:11.802Z,9804
2016-07-14T10:51:11.098Z,8524
2016-07-14T10:52:12.424Z,8676
2016-07-14T10:53:10.611Z,8272
2016-07-14T10:54:10.866Z,7168
2016-07-14T10:55:25.507Z,9156
2016-07-14T10:56:11.523Z,10664
2016-07-14T10:57:11.357Z,9672
2016-07-14T10:58:11.429Z,7316
2016-07-14T10:59:11.513Z,9132
2016-07-14T11:00:11.772Z,9592
2016-07-14T11:01:12.416Z,11508
2016-07-14T11:03:12.366Z,10796
2016-07-14T11:04:25.584Z,10264
2016-07-14T11:05:12.059Z,12456
2016-07-14T11:06:13.420Z,9940
2016-07-14T11:07:10.862Z,8452
2016-07-14T11:08:11.986Z,9220
2016-07-14T11:09:12.669Z,8332
2016-07-14T11:10:11.889Z,8008
2016-07-14T11:11:10.857Z,8244
2016-07-14T11:12:11.924Z,11176
2016-07-14T11:13:12.610Z,10408
2016-07-14T11:14:26.163Z,8520
2016-07-14T11:15:11.754Z,8036
2016-07-14T11:16:11.231Z,9660
2016-07-14T11:17:12.566Z,9544
2016-07-14T11:18:11.724Z,9148
2016-07-14T11:19:25.892Z,10824
2016-07-14T11:20:12.071Z,14444
2016-07-14T11:21:10.749Z,12164
2016-07-14T11:22:10.858Z,11244
2016-07-14T11:23:12.093Z,8852
2016-07-14T11:24:12.682Z,8108
2016-07-14T11:25:11.041Z,8648
2016-07-14T11:26:11.892Z,10104
2016-07-14T11:27:11.921Z,9204
2016-07-14T11:28:11.213Z,10080
2016-07-14T11:29:11.188Z,5052
2016-07-14T11:30:12.455Z,6332
2016-07-14T11:31:12.158Z,5560
2016-07-14T11:32:11.080Z,5580
2016-07-14T11:33:26.073Z,9820
2016-07-14T11:34:11.023Z,13512
2016-07-14T11:35:11.914Z,15684
2016-07-14T11:36:12.989Z,11192
2016-07-14T11:37:11.093Z,5200
2016-07-14T11:38:25.765Z,5504
2016-07-14T11:39:12.961Z,5748
2016-07-14T11:40:11.071Z,9644
2016-07-14T11:41:13.222Z,7596
2016-07-14T11:42:11.666Z,8224
2016-07-14T11:43:11.019Z,9984
2016-07-14T11:44:11.407Z,11236
2016-07-14T11:45:13.609Z,12536
2016-07-14T11:46:11.255Z,7872
2016-07-14T11:47:11.832Z,8488
2016-07-14T11:48:11.891Z,9476
2016-07-14T11:49:11.949Z,10096
2016-07-14T11:50:11.432Z,12108
2016-07-14T11:51:11.795Z,11376
2016-07-14T11:52:12.076Z,9276
2016-07-14T11:53:11.193Z,12204
2016-07-14T11:54:11.316Z,14560
2016-07-14T11:55:12.739Z,13260
2016-07-14T11:56:12.107Z,14900
2016-07-14T11:57:11.950Z,10072
2016-07-14T11:58:12.195Z,7856
2016-07-14T11:59:11.248Z,6572
2016-07-14T12:00:11.196Z,9064
2016-07-14T12:01:11.459Z,9104
2016-07-14T12:02:11.280Z,9964
2016-07-14T12:03:11.248Z,10764
2016-07-14T12:04:12.713Z,10620
2016-07-14T12:05:11.354Z,9392
2016-07-14T12:06:11.215Z,8552
2016-07-14T12:08:12.588Z,14824
2016-07-14T12:09:11.207Z,13776
2016-07-14T12:10:11.318Z,12852
2016-07-14T12:11:26.686Z,11832
2016-07-14T12:12:11.199Z,10416
2016-07-14T12:13:27.537Z,8092
2016-07-14T12:14:12.839Z,11444
2016-07-14T12:15:11.934Z,9584
2016-07-14T12:16:11.857Z,10384
2016-07-14T12:17:11.098Z,10136
2016-07-14T12:18:11.096Z,6908
2016-07-14T12:19:11.305Z,6796
2016-07-14T12:20:12.761Z,5980
2016-07-14T12:21:26.339Z,8252
2016-07-14T12:22:12.296Z,6840
2016-07-14T12:23:11.213Z,11768
2016-07-14T12:24:12.156Z,9868
2016-07-14T12:25:12.291Z,13260
2016-07-14T12:26:11.394Z,13672
2016-07-14T12:27:12.378Z,14104
2016-07-14T12:28:12.122Z,11936
2016-07-14T12:29:26.231Z,15624
2016-07-14T12:30:11.198Z,14468
2016-07-14T12:31:12.907Z,13096
2016-07-14T12:32:13.114Z,14264
2016-07-14T12:33:12.108Z,14028
2016-07-14T12:34:12.924Z,15492
2016-07-14T12:35:11.331Z,14912
2016-07-14T12:36:12.063Z,14252
2016-07-14T12:37:13.009Z,14584
2016-07-14T12:38:11.421Z,13476
2016-07-14T12:39:13.115Z,9404
2016-07-14T12:40:11.516Z,7240
2016-07-14T12:41:27.795Z,8476
2016-07-14T12:42:12.416Z,5840
2016-07-14T12:43:26.909Z,8316
2016-07-14T12:44:26.756Z,12612
2016-07-14T12:45:26.177Z,11920
2016-07-14T12:46:12.052Z,8616
2016-07-14T12:47:11.676Z,9816
2016-07-14T12:48:11.345Z,10464
2016-07-14T12:49:26.978Z,11852
2016-07-14T12:50:27.269Z,11684
2016-07-14T12:51:11.383Z,11156
2016-07-14T12:52:26.090Z,12252
2016-07-14T12:53:28.209Z,10056
2016-07-14T12:54:12.080Z,12464
2016-07-14T12:55:11.641Z,13264
2016-07-14T12:56:11.708Z,14752
2016-07-14T12:57:12.235Z,16196
2016-07-14T12:58:12.123Z,16312
2016-07-14T12:59:11.651Z,15904
2016-07-14T13:00:12.870Z,16056
2016-07-14T13:01:12.373Z,15228
2016-07-14T13:02:12.366Z,13008
2016-07-14T13:03:12.570Z,11852
2016-07-14T13:04:13.394Z,11492
2016-07-14T13:05:12.288Z,8952
2016-07-14T13:06:11.571Z,6008
2016-07-14T13:07:11.473Z,3540
2016-07-14T13:08:26.208Z,1624
2016-07-14T13:09:12.051Z,1800
2016-07-14T13:10:12.093Z,1864
2016-07-14T13:11:11.429Z,1368
2016-07-14T13:12:12.139Z,1320
2016-07-14T13:13:12.316Z,2024
2016-07-14T13:14:12.737Z,6244
2016-07-14T13:15:12.296Z,9752
2016-07-14T13:16:12.363Z,7932
2016-07-14T13:17:42.140Z,7028
2016-07-14T13:18:12.193Z,8468
2016-07-14T13:19:11.510Z,12476
2016-07-14T13:20:11.757Z,8552
2016-07-14T13:21:12.553Z,6640
2016-07-14T13:22:11.435Z,7892
2016-07-14T13:23:11.677Z,12120
2016-07-14T13:24:12.307Z,20192
2016-07-14T13:25:12.483Z,19360
2016-07-14T13:26:12.927Z,14464
2016-07-14T13:27:13.091Z,11204
2016-07-14T13:28:11.404Z,11864
2016-07-14T13:29:12.756Z,17344
2016-07-14T13:30:12.506Z,13408
2016-07-14T13:31:11.721Z,8892
2016-07-14T13:32:11.773Z,10236
2016-07-14T13:33:12.318Z,15876
2016-07-14T13:34:13.689Z,14540
2016-07-14T13:35:11.753Z,14804
2016-07-14T13:36:12.801Z,10568
2016-07-14T13:37:13.176Z,5996
2016-07-14T13:38:11.617Z,5016
2016-07-14T13:39:14.258Z,6888
2016-07-14T13:40:26.499Z,7372
2016-07-14T13:41:12.470Z,11408
2016-07-14T13:42:11.569Z,13248
2016-07-14T13:43:11.772Z,11604
2016-07-14T13:44:12.528Z,9672
2016-07-14T13:45:12.560Z,12536
2016-07-14T13:46:11.913Z,12620